Terminal Aerodrome Forecast
Issued by NWS Charleston, WV

Current Version | Previous Version | Text Only | Print | Product List | Glossary Off
Versions: 1 2 3 4 5 6 7 8 9 10 11 12 13 14 15 16 17 18 19 20 21 22 23 24 25

000
FTUS41 KRLX 250800 AAA
TAFPKB
TAF AMD
KPKB 250807Z 2508/2606 00000KT 2SM BR SCT001
      TEMPO 2509/2512 1/2SM FG BKN001
     FM251300 00000KT 2SM BR BKN001
     FM251400 VRB03KT P6SM SKC
     FM251700 VRB03KT P6SM SCT035
     FM251900 VRB03KT P6SM SCT045
     FM252300 17004KT P6SM SKC
      AMD NOT SKED=

USA.gov is the U.S. government's official web portal to all federal, state and local government web resources and services.